Time;durP1;ratioP1;P1;durP2;ratioP2;P2;SDS_P1;SDS_P2;PMS_P1;PMS_P2;Temp;Humidity;BMP_temperature;BMP_pressure;BME280_temperature;BME280_humidity;BME280_pressure;Samples;Min_cycle;Max_cycle;Signal;HPM_P1;HPM_P2
2021/01/23 06:15:37;;;;;;;1.20;1.20;;;4.20;99.90;;;;;;5773553;23;20298;-79
2021/01/23 06:18:06;;;;;;;1.20;1.20;;;4.10;99.90;;;;;;4909250;29;20237;-77
2021/01/23 06:20:52;;;;;;;1.27;1.27;;;4.10;99.90;;;;;;4917161;29;20727;-78
2021/01/23 06:23:21;;;;;;;1.30;1.30;;;4.10;99.90;;;;;;4917488;29;20210;-77
2021/01/23 06:25:59;;;;;;;1.10;1.10;;;3.90;99.90;;;;;;4912280;29;20230;-77
2021/01/23 06:28:49;;;;;;;1.20;1.20;;;3.80;99.90;;;;;;4898278;29;20305;-78
2021/01/23 06:31:36;;;;;;;1.23;1.23;;;3.60;99.90;;;;;;4892537;29;20215;-76
2021/01/23 06:34:26;;;;;;;1.20;1.20;;;3.60;99.90;;;;;;4890689;29;20259;-77
2021/01/23 06:37:22;;;;;;;1.30;1.30;;;3.50;99.90;;;;;;4897498;29;20227;-78
2021/01/23 06:40:16;;;;;;;1.53;1.53;;;;;;;;;;4897790;29;20267;-78
2021/01/23 06:42:45;;;;;;;1.30;1.30;;;3.10;99.90;;;;;;4897663;29;20211;-77
2021/01/23 06:45:16;;;;;;;1.40;1.40;;;2.90;99.90;;;;;;4897560;29;20282;-76
2021/01/23 06:47:45;;;;;;;1.20;1.20;;;2.90;99.90;;;;;;4897095;29;20223;-76
2021/01/23 06:50:25;;;;;;;1.10;1.10;;;2.90;99.90;;;;;;4891524;29;20207;-78
2021/01/23 06:52:51;;;;;;;1.27;1.27;;;2.90;99.90;;;;;;4878916;29;20212;-75
2021/01/23 06:55:40;;;;;;;1.23;1.23;;;2.90;99.90;;;;;;4878661;29;20204;-77
2021/01/23 06:58:19;;;;;;;1.40;1.40;;;2.90;99.90;;;;;;4877948;29;20204;-76
2021/01/23 07:00:47;;;;;;;1.17;1.17;;;;;;;;;;4878329;29;20283;-75
2021/01/23 07:03:16;;;;;;;1.40;1.40;;;2.50;99.90;;;;;;4878124;29;20208;-76
2021/01/23 07:05:51;;;;;;;1.30;1.30;;;2.50;99.90;;;;;;4877185;29;20224;-80
2021/01/23 07:08:26;;;;;;;1.40;1.40;;;2.40;99.90;;;;;;4877131;29;20259;-78
2021/01/23 07:11:07;;;;;;;1.20;1.20;;;2.30;99.90;;;;;;4882664;29;20204;-78
2021/01/23 07:13:34;;;;;;;1.30;1.30;;;2.10;99.90;;;;;;4878515;29;20243;-77
2021/01/23 07:16:01;;;;;;;1.50;1.50;;;2.10;99.90;;;;;;4878502;29;20268;-74
2021/01/23 07:18:29;;;;;;;1.43;1.43;;;1.90;99.90;;;;;;4877605;29;20208;-74
2021/01/23 07:20:57;;;;;;;1.23;1.23;;;1.80;99.90;;;;;;4878600;29;20280;-75
2021/01/23 07:23:24;;;;;;;1.20;1.20;;;1.70;99.90;;;;;;4879424;29;20627;-78
2021/01/23 07:25:51;;;;;;;1.50;1.50;;;1.70;99.90;;;;;;4878220;29;20231;-76
2021/01/23 07:28:19;;;;;;;1.33;1.33;;;1.70;99.90;;;;;;4878026;29;20730;-78
2021/01/23 07:30:46;;;;;;;1.20;1.20;;;1.70;99.90;;;;;;4878656;29;20239;-78
2021/01/23 07:33:27;;;;;;;1.47;1.47;;;1.70;99.90;;;;;;4879065;29;20215;-78
2021/01/23 07:35:55;;;;;;;1.33;1.33;;;1.70;99.90;;;;;;4880319;29;20284;-79
2021/01/23 07:38:22;;;;;;;1.30;1.30;;;1.80;99.90;;;;;;4879315;29;20633;-80
2021/01/23 07:40:54;;;;;;;1.20;1.20;;;1.80;99.90;;;;;;4880047;29;20215;-79
2021/01/23 07:43:24;;;;;;;1.30;1.30;;;1.80;99.90;;;;;;4880630;29;20192;-78
2021/01/23 07:45:55;;;;;;;1.20;1.20;;;1.80;99.90;;;;;;4879957;29;20228;-77
2021/01/23 07:48:22;;;;;;;1.30;1.30;;;1.80;99.90;;;;;;4875819;29;20216;-75
2021/01/23 07:50:49;;;;;;;1.50;1.50;;;1.80;99.90;;;;;;4877649;29;20241;-75
2021/01/23 07:53:19;;;;;;;1.20;1.20;;;1.80;99.90;;;;;;4875610;29;20212;-77
2021/01/23 07:55:47;;;;;;;1.40;1.40;;;1.70;99.90;;;;;;4877502;29;20216;-79
2021/01/23 07:58:14;;;;;;;1.40;1.40;;;1.70;99.90;;;;;;4876764;29;20216;-76
2021/01/23 08:00:42;;;;;;;1.37;1.37;;;1.70;99.90;;;;;;4877388;29;20681;-77
2021/01/23 08:03:10;;;;;;;1.33;1.33;;;1.70;99.90;;;;;;4877738;29;20200;-76
2021/01/23 08:05:44;;;;;;;1.37;1.37;;;1.70;99.90;;;;;;4875562;29;20262;-76
2021/01/23 08:08:12;;;;;;;1.13;1.13;;;1.70;99.90;;;;;;4875124;29;20231;-80
2021/01/23 08:10:40;;;;;;;1.20;1.20;;;1.70;99.90;;;;;;4876373;29;20299;-82
2021/01/23 08:13:08;;;;;;;1.50;1.50;;;1.70;99.90;;;;;;4874892;29;20200;-78
2021/01/23 08:15:37;;;;;;;1.30;1.30;;;1.70;99.90;;;;;;4875368;29;20240;-78
2021/01/23 08:18:15;;;;;;;1.30;1.30;;;1.60;99.90;;;;;;4876696;29;20204;-78
2021/01/23 08:20:42;;;;;;;1.30;1.30;;;1.70;99.90;;;;;;4877385;29;20208;-77
2021/01/23 08:23:10;;;;;;;1.40;1.40;;;1.70;99.90;;;;;;4877619;29;20212;-77
2021/01/23 08:25:46;;;;;;;1.30;1.30;;;1.70;99.90;;;;;;4877836;29;20228;-76
2021/01/23 08:28:15;;;;;;;1.30;1.30;;;1.70;99.90;;;;;;4877491;29;20279;-78
2021/01/23 08:30:41;;;;;;;1.20;1.20;;;1.80;99.90;;;;;;4877924;29;20204;-77
2021/01/23 08:33:09;;;;;;;1.40;1.40;;;1.80;99.90;;;;;;4877838;29;20208;-77
2021/01/23 08:35:38;;;;;;;1.50;1.50;;;1.80;99.90;;;;;;4878840;29;20228;-77
2021/01/23 08:38:06;;;;;;;1.50;1.50;;;1.70;99.90;;;;;;4880795;29;20208;-76
2021/01/23 08:40:33;;;;;;;1.37;1.37;;;1.80;99.90;;;;;;4881522;29;20629;-77
2021/01/23 08:43:00;;;;;;;1.23;1.23;;;1.70;99.90;;;;;;4880516;29;20244;-76
2021/01/23 08:45:28;;;;;;;1.50;1.50;;;1.60;99.90;;;;;;4881048;29;20232;-75
2021/01/23 08:47:54;;;;;;;1.30;1.30;;;1.70;99.90;;;;;;4880598;29;20710;-77
2021/01/23 08:50:21;;;;;;;1.40;1.40;;;1.70;99.90;;;;;;4880504;29;20208;-77
2021/01/23 08:52:49;;;;;;;1.60;1.60;;;1.70;99.90;;;;;;4880624;29;20703;-77
2021/01/23 08:55:16;;;;;;;1.40;1.40;;;1.90;99.90;;;;;;4880938;29;20260;-76
2021/01/23 08:57:43;;;;;;;1.60;1.60;;;1.80;99.90;;;;;;4875112;29;20232;-76
2021/01/23 09:00:14;;;;;;;1.10;1.10;;;1.80;99.90;;;;;;4880293;29;20208;-76
2021/01/23 09:02:41;;;;;;;1.40;1.40;;;1.90;99.90;;;;;;4880201;29;20673;-76
2021/01/23 09:05:10;;;;;;;1.37;1.37;;;1.90;99.90;;;;;;4880717;29;20212;-79
2021/01/23 09:07:39;;;;;;;1.30;1.30;;;1.90;99.90;;;;;;4880280;29;20228;-76
2021/01/23 09:10:08;;;;;;;1.30;1.30;;;1.90;99.90;;;;;;4880272;29;20204;-76
2021/01/23 09:12:35;;;;;;;1.27;1.27;;;1.90;99.90;;;;;;4877180;29;20295;-75
2021/01/23 09:15:02;;;;;;;1.40;1.40;;;2.00;99.90;;;;;;4878728;29;20212;-77
2021/01/23 09:17:29;;;;;;;1.10;1.10;;;2.00;99.90;;;;;;4879815;29;20248;-77
2021/01/23 09:19:56;;;;;;;1.27;1.27;;;2.00;99.90;;;;;;4879551;29;20220;-76
2021/01/23 09:22:23;;;;;;;1.70;1.70;;;2.10;99.90;;;;;;4880042;29;20212;-75
2021/01/23 09:24:50;;;;;;;1.40;1.40;;;2.10;99.90;;;;;;4880222;29;20207;-75
2021/01/23 09:27:17;;;;;;;1.50;1.50;;;2.10;99.90;;;;;;4879945;29;20227;-76
2021/01/23 09:29:44;;;;;;;1.30;1.30;;;2.10;99.90;;;;;;4879630;29;20256;-75
2021/01/23 09:32:11;;;;;;;1.43;1.43;;;2.00;99.90;;;;;;4879776;29;20212;-76
2021/01/23 09:34:39;;;;;;;1.40;1.40;;;2.10;99.90;;;;;;4880049;29;20231;-76
2021/01/23 09:37:06;;;;;;;1.50;1.50;;;2.10;99.90;;;;;;4879577;29;20666;-77
2021/01/23 09:39:32;;;;;;;1.30;1.30;;;2.10;99.90;;;;;;4879283;29;20212;-76
2021/01/23 09:41:59;;;;;;;1.20;1.20;;;2.10;99.90;;;;;;4879735;29;20738;-77
2021/01/23 09:44:26;;;;;;;1.30;1.30;;;2.10;99.90;;;;;;4879273;29;20256;-75
2021/01/23 09:46:53;;;;;;;1.37;1.37;;;2.00;99.90;;;;;;4878328;29;20284;-76
2021/01/23 09:49:21;;;;;;;1.27;1.27;;;2.10;99.90;;;;;;4879636;29;20574;-76
2021/01/23 09:51:49;;;;;;;1.50;1.50;;;2.10;99.90;;;;;;4878812;29;20288;-76
2021/01/23 09:54:16;;;;;;;1.20;1.20;;;2.20;99.90;;;;;;4879422;29;20208;-77
2021/01/23 09:57:00;;;;;;;1.30;1.30;;;2.20;99.90;;;;;;4880025;29;20224;-78
2021/01/23 09:59:27;;;;;;;1.40;1.40;;;2.20;99.90;;;;;;4879241;29;20583;-77
2021/01/23 10:01:55;;;;;;;1.43;1.43;;;2.20;99.90;;;;;;4879652;29;20219;-76
2021/01/23 10:04:22;;;;;;;1.30;1.30;;;2.20;99.90;;;;;;4879356;29;20308;-76
2021/01/23 10:06:49;;;;;;;1.30;1.30;;;2.20;99.90;;;;;;4879274;29;20638;-76
2021/01/23 10:09:17;;;;;;;1.40;1.40;;;2.10;99.90;;;;;;4879131;29;20295;-75
2021/01/23 10:11:44;;;;;;;1.30;1.30;;;2.20;99.90;;;;;;4878208;29;20208;-76
2021/01/23 10:14:11;;;;;;;1.50;1.50;;;2.20;99.90;;;;;;4878603;29;20200;-75
2021/01/23 10:16:39;;;;;;;1.10;1.10;;;2.20;99.90;;;;;;4878744;29;20236;-76
2021/01/23 10:19:06;;;;;;;1.40;1.40;;;2.10;99.90;;;;;;4878654;29;20209;-76
2021/01/23 10:21:33;;;;;;;1.30;1.30;;;2.10;99.90;;;;;;4878491;29;20252;-75
2021/01/23 10:24:01;;;;;;;1.30;1.30;;;2.20;99.90;;;;;;4878877;29;20233;-76
2021/01/23 10:26:30;;;;;;;1.40;1.40;;;2.20;99.90;;;;;;4878407;29;20224;-77
2021/01/23 10:28:58;;;;;;;1.30;1.30;;;;;;;;;;4878629;29;20215;-77
2021/01/23 10:31:25;;;;;;;1.30;1.30;;;2.10;99.90;;;;;;4879001;29;20212;-77
2021/01/23 10:33:52;;;;;;;1.10;1.10;;;2.10;99.90;;;;;;4879011;29;20208;-77
2021/01/23 10:36:19;;;;;;;1.40;1.40;;;2.10;99.90;;;;;;4879860;29;20228;-75
2021/01/23 10:38:46;;;;;;;1.40;1.40;;;2.10;99.90;;;;;;4877421;29;20218;-75
2021/01/23 10:41:14;;;;;;;1.30;1.30;;;2.20;99.90;;;;;;4878322;29;20219;-76
2021/01/23 10:43:41;;;;;;;1.37;1.37;;;2.20;99.90;;;;;;4878468;29;20211;-77
2021/01/23 10:46:08;;;;;;;1.43;1.43;;;2.20;99.90;;;;;;4880112;29;20649;-79
2021/01/23 10:48:35;;;;;;;1.40;1.40;;;2.20;99.90;;;;;;4881833;29;20658;-80
2021/01/23 10:51:04;;;;;;;1.33;1.33;;;2.20;99.90;;;;;;4879542;29;20556;-75
2021/01/23 10:53:32;;;;;;;1.50;1.50;;;2.30;99.90;;;;;;4878068;29;20697;-77
2021/01/23 10:55:58;;;;;;;1.10;1.10;;;2.30;99.90;;;;;;4878260;29;20231;-77
2021/01/23 10:58:26;;;;;;;1.30;1.30;;;2.30;99.90;;;;;;4876897;29;20204;-76
2021/01/23 11:00:53;;;;;;;1.33;1.33;;;2.40;99.90;;;;;;4878225;29;20212;-77
2021/01/23 11:03:20;;;;;;;1.23;1.23;;;2.30;99.90;;;;;;4877947;29;20208;-76
2021/01/23 11:05:47;;;;;;;1.20;1.20;;;2.30;99.90;;;;;;4878840;29;20789;-77
2021/01/23 11:08:14;;;;;;;1.33;1.33;;;2.30;99.90;;;;;;4878924;29;20220;-78
2021/01/23 11:10:42;;;;;;;1.30;1.30;;;;;;;;;;4879881;29;20208;-78
2021/01/23 11:13:09;;;;;;;1.30;1.30;;;2.30;99.90;;;;;;4883205;29;20200;-79
2021/01/23 11:15:37;;;;;;;1.30;1.30;;;2.30;99.90;;;;;;4880654;29;20268;-79
2021/01/23 11:18:05;;;;;;;1.00;1.00;;;2.20;99.90;;;;;;4879976;29;20196;-78
2021/01/23 11:20:32;;;;;;;1.53;1.53;;;2.20;99.90;;;;;;4881462;29;20585;-79
2021/01/23 11:22:59;;;;;;;1.30;1.30;;;2.30;99.90;;;;;;4883031;29;20623;-80
2021/01/23 11:25:28;;;;;;;1.20;1.20;;;2.40;99.90;;;;;;4883537;29;20203;-79
2021/01/23 11:27:55;;;;;;;1.40;1.40;;;2.40;99.90;;;;;;4884050;29;20624;-78
2021/01/23 11:30:24;;;;;;;1.30;1.30;;;2.50;99.90;;;;;;4882976;29;20546;-80
2021/01/23 11:32:52;;;;;;;1.30;1.30;;;2.50;99.90;;;;;;4884645;29;20302;-80
2021/01/23 11:35:20;;;;;;;1.17;1.17;;;2.30;99.90;;;;;;4885122;29;20282;-80
2021/01/23 11:37:48;;;;;;;1.43;1.43;;;2.50;99.90;;;;;;4885486;29;20204;-79
2021/01/23 11:40:15;;;;;;;1.50;1.50;;;2.50;99.90;;;;;;4886184;29;20225;-79
2021/01/23 11:42:43;;;;;;;1.30;1.30;;;2.70;99.90;;;;;;4886719;29;20260;-78
2021/01/23 11:45:10;;;;;;;1.53;1.53;;;2.70;99.90;;;;;;4877900;29;20207;-80
2021/01/23 11:47:40;;;;;;;1.30;1.30;;;2.80;99.90;;;;;;4877333;29;20234;-80
2021/01/23 11:50:10;;;;;;;1.20;1.20;;;2.80;99.90;;;;;;4877797;29;20235;-77
2021/01/23 11:52:37;;;;;;;1.27;1.27;;;2.70;99.90;;;;;;4877469;29;20216;-78
2021/01/23 11:55:06;;;;;;;1.20;1.20;;;2.90;99.90;;;;;;4877457;29;20204;-77
2021/01/23 11:57:35;;;;;;;1.50;1.50;;;;;;;;;;4876346;29;20709;-80
2021/01/23 12:00:03;;;;;;;1.20;1.20;;;3.00;99.90;;;;;;4877909;29;20208;-77
2021/01/23 12:02:30;;;;;;;1.20;1.20;;;3.40;99.90;;;;;;4877974;29;20212;-76
2021/01/23 12:04:57;;;;;;;1.20;1.20;;;3.70;99.90;;;;;;4877962;29;20614;-77
2021/01/23 12:07:25;;;;;;;1.27;1.27;;;3.70;99.90;;;;;;4877668;29;20232;-77
2021/01/23 12:09:52;;;;;;;1.30;1.30;;;3.50;99.90;;;;;;4877781;29;20343;-78
2021/01/23 12:12:19;;;;;;;1.20;1.20;;;3.50;99.90;;;;;;4881326;29;20260;-76
2021/01/23 12:14:45;;;;;;;1.30;1.30;;;3.50;99.90;;;;;;4881270;29;20212;-77
2021/01/23 12:17:12;;;;;;;1.33;1.33;;;3.40;99.90;;;;;;4881086;29;20292;-76
2021/01/23 12:19:41;;;;;;;1.17;1.17;;;3.40;99.90;;;;;;4879413;29;20208;-77
2021/01/23 12:22:09;;;;;;;1.10;1.10;;;3.30;99.90;;;;;;4880879;29;20215;-75
2021/01/23 12:24:36;;;;;;;1.30;1.30;;;3.30;99.90;;;;;;4880708;29;20296;-76
2021/01/23 12:27:04;;;;;;;1.30;1.30;;;3.30;99.90;;;;;;4879990;29;20310;-75
2021/01/23 12:29:31;;;;;;;1.20;1.20;;;3.40;99.90;;;;;;4880836;29;20491;-75
2021/01/23 12:32:00;;;;;;;1.60;1.60;;;3.40;99.90;;;;;;4883050;29;20204;-77
2021/01/23 12:34:27;;;;;;;1.20;1.20;;;3.50;99.90;;;;;;4881766;29;20200;-78
2021/01/23 12:36:54;;;;;;;1.30;1.30;;;3.50;99.90;;;;;;4882467;29;20240;-78
2021/01/23 12:39:22;;;;;;;1.30;1.30;;;3.40;99.90;;;;;;4881555;29;20220;-78
2021/01/23 12:41:50;;;;;;;1.30;1.30;;;3.40;99.90;;;;;;4881670;29;20280;-77
2021/01/23 12:44:17;;;;;;;1.20;1.20;;;3.30;99.90;;;;;;4882746;29;20208;-77
2021/01/23 12:46:44;;;;;;;1.20;1.20;;;3.40;99.90;;;;;;4882797;29;20235;-78
2021/01/23 12:49:11;;;;;;;1.00;1.00;;;3.40;99.90;;;;;;4882827;29;20216;-78
2021/01/23 12:51:38;;;;;;;1.10;1.10;;;3.50;99.90;;;;;;4882111;29;20208;-78
2021/01/23 12:54:05;;;;;;;1.30;1.30;;;3.50;99.90;;;;;;4883817;29;20716;-79
2021/01/23 12:56:32;;;;;;;1.23;1.23;;;3.60;99.90;;;;;;4879973;29;20725;-78
2021/01/23 12:59:00;;;;;;;1.10;1.10;;;3.70;99.90;;;;;;4878876;29;20670;-77
2021/01/23 13:01:27;;;;;;;1.30;1.30;;;3.80;99.90;;;;;;4880882;29;20208;-78
2021/01/23 13:03:54;;;;;;;1.10;1.10;;;3.70;99.90;;;;;;4880138;29;20268;-78
2021/01/23 13:06:21;;;;;;;1.10;1.10;;;3.70;99.90;;;;;;4879935;29;20660;-78
2021/01/23 13:08:48;;;;;;;1.10;1.10;;;3.60;99.90;;;;;;4878367;29;20272;-78
2021/01/23 13:11:14;;;;;;;1.10;1.10;;;3.60;99.90;;;;;;4879106;29;20638;-79
2021/01/23 13:13:41;;;;;;;1.20;1.20;;;3.50;99.90;;;;;;4877751;29;20269;-77
2021/01/23 13:16:09;;;;;;;1.23;1.23;;;3.50;99.90;;;;;;4879723;29;20240;-77
2021/01/23 13:18:36;;;;;;;1.30;1.30;;;3.40;99.90;;;;;;4879502;29;20227;-77
2021/01/23 13:21:03;;;;;;;1.10;1.10;;;3.50;99.90;;;;;;4879598;29;20208;-77
2021/01/23 13:23:30;;;;;;;1.10;1.10;;;3.50;99.90;;;;;;4880111;29;20211;-77
2021/01/23 13:25:57;;;;;;;1.30;1.30;;;3.60;99.90;;;;;;4880570;29;20288;-77
2021/01/23 13:28:24;;;;;;;1.17;1.17;;;3.40;99.90;;;;;;4880206;29;20228;-78
2021/01/23 13:30:51;;;;;;;1.37;1.37;;;3.40;99.90;;;;;;4880656;29;20212;-77
2021/01/23 13:33:18;;;;;;;1.20;1.20;;;3.40;99.90;;;;;;4880207;29;20212;-77
2021/01/23 13:35:45;;;;;;;1.17;1.17;;;3.30;99.90;;;;;;4880202;29;20232;-77
2021/01/23 13:38:12;;;;;;;1.00;1.00;;;3.50;99.90;;;;;;4879800;29;20208;-77
2021/01/23 13:40:40;;;;;;;1.20;1.20;;;3.60;99.90;;;;;;4880277;29;20666;-77
2021/01/23 13:43:07;;;;;;;1.40;1.40;;;3.60;99.90;;;;;;4880184;29;20212;-77
2021/01/23 13:45:34;;;;;;;1.20;1.20;;;3.70;99.90;;;;;;4880192;29;20268;-77
2021/01/23 13:48:02;;;;;;;1.43;1.43;;;3.80;99.90;;;;;;4879844;29;20274;-77
2021/01/23 13:50:30;;;;;;;1.30;1.30;;;3.70;99.90;;;;;;4880049;29;20223;-77
2021/01/23 13:52:58;;;;;;;1.17;1.17;;;;;;;;;;4879956;29;20212;-76
2021/01/23 13:55:25;;;;;;;1.20;1.20;;;3.40;99.90;;;;;;4880182;29;20208;-77
2021/01/23 13:57:52;;;;;;;1.20;1.20;;;3.40;99.90;;;;;;4879777;29;20215;-77
2021/01/23 14:00:20;;;;;;;1.20;1.20;;;3.30;99.90;;;;;;4879854;29;20355;-77
2021/01/23 14:02:47;;;;;;;1.20;1.20;;;3.50;99.90;;;;;;4880000;29;20204;-76
2021/01/23 14:05:15;;;;;;;1.20;1.20;;;3.80;99.90;;;;;;4879861;29;20700;-79
2021/01/23 14:07:43;;;;;;;1.10;1.10;;;3.60;99.90;;;;;;4881768;29;20232;-77
2021/01/23 14:10:23;;;;;;;1.03;1.03;;;3.50;99.90;;;;;;4879722;29;20204;-76
2021/01/23 14:12:50;;;;;;;1.33;1.33;;;3.50;99.90;;;;;;4879816;29;20560;-77
2021/01/23 14:15:20;;;;;;;1.30;1.30;;;3.40;99.90;;;;;;4881108;29;20211;-78
2021/01/23 14:17:49;;;;;;;1.23;1.23;;;3.40;99.90;;;;;;4880604;29;20235;-79
2021/01/23 14:20:17;;;;;;;1.20;1.20;;;3.50;99.90;;;;;;4880693;29;20204;-78
2021/01/23 14:22:44;;;;;;;1.30;1.30;;;3.60;99.90;;;;;;4881167;29;20248;-79
2021/01/23 14:25:12;;;;;;;1.20;1.20;;;3.60;99.90;;;;;;4878963;29;20256;-78
2021/01/23 14:27:40;;;;;;;1.10;1.10;;;3.60;99.90;;;;;;4880438;29;20267;-79
2021/01/23 14:30:08;;;;;;;1.20;1.20;;;3.60;99.90;;;;;;4876030;29;20670;-80
2021/01/23 14:32:36;;;;;;;1.20;1.20;;;3.70;99.90;;;;;;4881707;29;20286;-78
2021/01/23 14:35:04;;;;;;;1.20;1.20;;;3.60;99.90;;;;;;4881316;29;20249;-79
2021/01/23 14:37:31;;;;;;;1.30;1.30;;;3.40;99.90;;;;;;4881383;29;20697;-80
2021/01/23 14:39:59;;;;;;;1.20;1.20;;;3.40;99.90;;;;;;4880695;29;20196;-79
2021/01/23 14:42:26;;;;;;;1.27;1.27;;;3.40;99.90;;;;;;4880633;29;20666;-80
2021/01/23 14:44:54;;;;;;;1.20;1.20;;;3.30;99.90;;;;;;4881052;29;20284;-80
2021/01/23 14:47:22;;;;;;;1.23;1.23;;;3.40;99.90;;;;;;4880092;29;20251;-77
2021/01/23 14:49:49;;;;;;;1.20;1.20;;;3.40;99.90;;;;;;4878338;29;20685;-78
2021/01/23 14:52:15;;;;;;;1.30;1.30;;;3.50;99.90;;;;;;4877982;29;20654;-79
2021/01/23 14:54:42;;;;;;;1.20;1.20;;;3.60;99.90;;;;;;4878277;29;20627;-77
2021/01/23 14:57:10;;;;;;;1.20;1.20;;;3.70;99.90;;;;;;4879501;29;20296;-77
2021/01/23 14:59:37;;;;;;;1.20;1.20;;;3.70;99.90;;;;;;4878627;29;20268;-77
2021/01/23 15:02:04;;;;;;;1.20;1.20;;;3.80;99.90;;;;;;4879644;29;20216;-76
2021/01/23 15:04:31;;;;;;;1.20;1.20;;;3.90;99.90;;;;;;4880502;29;20584;-78
2021/01/23 15:06:58;;;;;;;1.20;1.20;;;3.80;99.90;;;;;;4879468;29;20249;-78
2021/01/23 15:09:26;;;;;;;1.20;1.20;;;3.80;99.90;;;;;;4878496;29;20232;-78
2021/01/23 15:11:53;;;;;;;1.03;1.03;;;4.00;99.90;;;;;;4879246;29;20309;-79
2021/01/23 15:14:21;;;;;;;1.17;1.17;;;4.10;99.90;;;;;;4879928;29;20265;-78
2021/01/23 15:16:47;;;;;;;1.30;1.30;;;3.80;99.90;;;;;;4879602;29;20228;-79
2021/01/23 15:19:22;;;;;;;1.30;1.30;;;3.70;99.90;;;;;;4878710;29;20200;-78
2021/01/23 15:21:49;;;;;;;1.10;1.10;;;3.60;99.90;;;;;;4879999;29;20200;-79
2021/01/23 15:24:16;;;;;;;1.20;1.20;;;3.60;99.90;;;;;;4879527;29;20212;-77
2021/01/23 15:26:43;;;;;;;1.43;1.43;;;3.60;99.90;;;;;;4876897;29;20227;-78
2021/01/23 15:29:10;;;;;;;1.20;1.20;;;3.60;99.90;;;;;;4878322;29;20216;-78
2021/01/23 15:31:38;;;;;;;1.00;1.00;;;3.60;99.90;;;;;;4879072;29;20204;-77
2021/01/23 15:34:06;;;;;;;1.07;1.07;;;;;;;;;;4880988;29;20235;-79
2021/01/23 15:36:33;;;;;;;1.13;1.13;;;3.50;99.90;;;;;;4880640;29;20247;-78
2021/01/23 15:39:02;;;;;;;1.27;1.27;;;3.70;99.90;;;;;;4881417;29;20200;-79
2021/01/23 15:41:30;;;;;;;1.10;1.10;;;3.70;99.90;;;;;;4881381;29;20203;-79
2021/01/23 15:43:57;;;;;;;1.17;1.17;;;3.70;99.90;;;;;;4880686;29;20200;-78
2021/01/23 15:46:25;;;;;;;1.10;1.10;;;3.70;99.90;;;;;;4880361;29;20315;-78
2021/01/23 15:48:53;;;;;;;1.30;1.30;;;3.70;99.90;;;;;;4880363;29;20220;-78
2021/01/23 15:51:20;;;;;;;1.10;1.10;;;3.80;99.90;;;;;;4879671;29;20204;-78
2021/01/23 15:53:47;;;;;;;1.10;1.10;;;3.80;99.90;;;;;;4881457;29;20264;-80
2021/01/23 15:56:14;;;;;;;1.30;1.30;;;3.80;99.90;;;;;;4881906;29;20253;-78
2021/01/23 15:58:41;;;;;;;1.17;1.17;;;3.80;99.90;;;;;;4881953;29;20248;-79
2021/01/23 16:01:07;;;;;;;1.20;1.20;;;3.80;99.90;;;;;;4881795;29;20208;-79
2021/01/23 16:03:34;;;;;;;1.10;1.10;;;3.70;99.90;;;;;;4882339;29;20260;-80
2021/01/23 16:06:02;;;;;;;1.17;1.17;;;3.70;99.90;;;;;;4880992;29;20223;-80
2021/01/23 16:08:30;;;;;;;1.10;1.10;;;3.70;99.90;;;;;;4880521;29;20772;-80
2021/01/23 16:10:57;;;;;;;1.10;1.10;;;3.60;99.90;;;;;;4881784;29;20204;-79
2021/01/23 16:13:24;;;;;;;1.23;1.23;;;;;;;;;;4881140;29;20208;-78
2021/01/23 16:15:51;;;;;;;1.10;1.10;;;;;;;;;;4880300;29;20235;-78
2021/01/23 16:18:18;;;;;;;1.17;1.17;;;;;;;;;;4880587;29;20204;-80
2021/01/23 16:20:46;;;;;;;1.10;1.10;;;;;;;;;;4881216;29;20204;-79
2021/01/23 16:23:15;;;;;;;1.10;1.10;;;3.60;99.90;;;;;;4880914;29;20220;-80
2021/01/23 16:25:42;;;;;;;1.20;1.20;;;;;;;;;;4879176;29;20224;-80
2021/01/23 16:28:10;;;;;;;1.20;1.20;;;;;;;;;;4881828;29;20566;-80
2021/01/23 16:30:38;;;;;;;1.20;1.20;;;;;;;;;;4879357;29;20208;-80
2021/01/23 16:33:06;;;;;;;1.10;1.10;;;;;;;;;;4881678;29;20275;-81
2021/01/23 16:35:41;;;;;;;1.20;1.20;;;4.30;99.90;;;;;;4879200;29;20256;-80
2021/01/23 16:38:08;;;;;;;1.30;1.30;;;4.00;99.90;;;;;;4881510;29;20554;-80
2021/01/23 16:40:37;;;;;;;1.13;1.13;;;3.80;99.90;;;;;;4880732;29;20200;-80
2021/01/23 16:43:05;;;;;;;1.10;1.10;;;;;;;;;;4879639;29;20208;-80
2021/01/23 16:45:32;;;;;;;1.17;1.17;;;;;;;;;;4879612;29;20275;-80
2021/01/23 16:48:00;;;;;;;1.30;1.30;;;;;;;;;;4881793;29;20235;-80
2021/01/23 16:50:28;;;;;;;1.20;1.20;;;;;;;;;;4881936;29;20303;-80
2021/01/23 16:52:55;;;;;;;1.17;1.17;;;;;;;;;;4882578;29;20244;-79
2021/01/23 16:55:22;;;;;;;1.00;1.00;;;;;;;;;;4882317;29;20208;-80
2021/01/23 16:57:50;;;;;;;1.10;1.10;;;3.90;99.90;;;;;;4884055;29;20208;-80
2021/01/23 17:00:20;;;;;;;1.13;1.13;;;3.70;99.90;;;;;;4884215;29;20208;-79
2021/01/23 17:02:47;;;;;;;1.20;1.20;;;4.00;99.90;;;;;;4885604;29;20219;-78
2021/01/23 17:05:15;;;;;;;1.20;1.20;;;;;;;;;;4883993;29;20196;-80
2021/01/23 17:07:44;;;;;;;1.10;1.10;;;;;;;;;;4883667;29;20204;-79
2021/01/23 17:10:13;;;;;;;1.00;1.00;;;4.20;99.90;;;;;;4882835;29;20235;-78
2021/01/23 17:12:40;;;;;;;1.20;1.20;;;;;;;;;;4883395;29;20769;-80
2021/01/23 17:15:09;;;;;;;1.10;1.10;;;4.00;99.90;;;;;;4883892;29;20208;-78
2021/01/23 17:17:36;;;;;;;1.07;1.07;;;;;;;;;;4907064;23;20295;-78
2021/01/23 17:20:09;;;;;;;1.30;1.30;;;4.40;99.90;;;;;;4900973;29;20211;-79
2021/01/23 17:22:36;;;;;;;1.10;1.10;;;;;;;;;;4900547;29;20673;-77
2021/01/23 17:25:04;;;;;;;1.30;1.30;;;4.40;99.90;;;;;;4902556;29;20198;-77
2021/01/23 17:27:35;;;;;;;1.10;1.10;;;4.70;99.90;;;;;;4919373;29;20232;-79
2021/01/23 17:30:02;;;;;;;1.10;1.10;;;;;;;;;;4918842;29;20214;-77
2021/01/23 17:32:30;;;;;;;1.20;1.20;;;4.50;99.90;;;;;;4918354;29;20622;-78
2021/01/23 17:34:57;;;;;;;1.10;1.10;;;4.50;99.90;;;;;;4919244;29;20270;-77
2021/01/23 17:37:33;;;;;;;1.10;1.10;;;;;;;;;;4917336;29;20222;-77
2021/01/23 17:40:00;;;;;;;1.17;1.17;;;4.30;99.90;;;;;;4918435;29;20676;-77
2021/01/23 17:42:27;;;;;;;1.10;1.10;;;4.30;99.90;;;;;;4919292;29;20215;-78
2021/01/23 17:44:54;;;;;;;1.10;1.10;;;4.40;99.90;;;;;;4918005;29;20199;-76
2021/01/23 17:47:21;;;;;;;1.20;1.20;;;4.20;99.90;;;;;;4917869;29;20226;-77
2021/01/23 17:49:51;;;;;;;1.10;1.10;;;4.00;99.90;;;;;;4918426;29;20241;-77
2021/01/23 17:52:18;;;;;;;1.20;1.20;;;3.90;99.90;;;;;;4920551;29;20210;-79
2021/01/23 17:54:45;;;;;;;1.30;1.30;;;3.80;99.90;;;;;;4919703;29;20215;-79
2021/01/23 17:57:12;;;;;;;1.00;1.00;;;;;;;;;;4920417;29;20238;-79
2021/01/23 17:59:59;;;;;;;1.13;1.13;;;3.80;99.90;;;;;;4920545;29;20592;-79
2021/01/23 18:02:27;;;;;;;1.17;1.17;;;;;;;;;;4919764;29;20234;-79
2021/01/23 18:04:55;;;;;;;1.13;1.13;;;4.00;99.90;;;;;;4921360;29;20243;-79
2021/01/23 18:07:23;;;;;;;1.30;1.30;;;4.10;99.90;;;;;;4921721;29;20227;-79
2021/01/23 18:09:50;;;;;;;1.20;1.20;;;4.30;99.90;;;;;;4919296;29;20230;-78
2021/01/23 18:12:17;;;;;;;1.17;1.17;;;4.40;99.90;;;;;;4920315;29;20211;-79
2021/01/23 18:14:44;;;;;;;1.10;1.10;;;4.50;99.90;;;;;;4919401;29;20203;-78
2021/01/23 18:17:11;;;;;;;1.10;1.10;;;4.60;99.90;;;;;;4919007;29;20298;-78
2021/01/23 18:19:38;;;;;;;1.13;1.13;;;4.50;99.90;;;;;;4919029;29;20203;-79
2021/01/23 18:22:06;;;;;;;1.23;1.23;;;4.50;99.90;;;;;;4920421;29;20233;-79
2021/01/23 18:24:32;;;;;;;1.20;1.20;;;4.60;99.90;;;;;;4921329;29;20255;-78
2021/01/23 18:27:00;;;;;;;0.90;0.90;;;4.70;99.90;;;;;;4920300;29;20257;-79
2021/01/23 18:29:27;;;;;;;1.00;1.00;;;4.60;99.90;;;;;;4918745;29;20273;-75
2021/01/23 18:31:54;;;;;;;1.00;1.00;;;4.60;99.90;;;;;;4909592;29;20777;-78
2021/01/23 18:34:22;;;;;;;1.20;1.20;;;4.50;99.90;;;;;;4907525;29;20211;-80
2021/01/23 18:36:49;;;;;;;1.00;1.00;;;4.20;99.90;;;;;;4918145;29;20222;-79
2021/01/23 18:39:17;;;;;;;1.03;1.03;;;4.20;99.90;;;;;;4917755;29;20211;-79
2021/01/23 18:41:45;;;;;;;1.10;1.10;;;4.30;99.90;;;;;;4919192;29;20270;-80
2021/01/23 18:44:12;;;;;;;1.20;1.20;;;4.40;99.90;;;;;;4920074;29;20285;-81
2021/01/23 18:46:40;;;;;;;1.10;1.10;;;4.30;99.90;;;;;;4919140;29;20226;-80
2021/01/23 18:49:08;;;;;;;1.33;1.33;;;4.30;99.90;;;;;;4918564;29;20226;-80
2021/01/23 18:51:37;;;;;;;1.10;1.10;;;4.40;99.90;;;;;;4918766;29;20214;-80
2021/01/23 18:54:05;;;;;;;1.20;1.20;;;4.50;99.90;;;;;;4918476;29;20212;-80
2021/01/23 18:56:33;;;;;;;1.00;1.00;;;4.40;99.90;;;;;;4917658;29;20735;-76
2021/01/23 18:59:00;;;;;;;1.20;1.20;;;4.50;99.90;;;;;;4915948;29;20258;-77
2021/01/23 19:01:28;;;;;;;1.33;1.33;;;4.50;99.90;;;;;;4916588;29;20210;-77
2021/01/23 19:03:56;;;;;;;1.40;1.40;;;4.50;99.90;;;;;;4916473;29;20238;-77
2021/01/23 19:06:24;;;;;;;1.40;1.40;;;4.50;99.90;;;;;;4916244;29;20759;-77
2021/01/23 19:09:06;;;;;;;1.00;1.00;;;4.50;99.90;;;;;;4916242;29;20250;-79
2021/01/23 19:11:34;;;;;;;1.10;1.10;;;4.60;99.90;;;;;;4915975;29;20206;-78
2021/01/23 19:14:01;;;;;;;1.07;1.07;;;4.60;99.90;;;;;;4917047;29;20202;-78
2021/01/23 19:16:28;;;;;;;1.00;1.00;;;4.60;99.90;;;;;;4915867;29;20234;-77
2021/01/23 19:18:55;;;;;;;1.10;1.10;;;4.70;99.90;;;;;;4915246;29;20209;-76
2021/01/23 19:21:22;;;;;;;1.17;1.17;;;4.70;99.90;;;;;;4916854;29;20211;-79
2021/01/23 19:23:49;;;;;;;1.30;1.30;;;4.60;99.90;;;;;;4917129;29;20651;-79
2021/01/23 19:26:15;;;;;;;1.17;1.17;;;4.60;99.90;;;;;;4917552;29;20226;-79